Rockwood, ME

10:54 PM EDT on May 26, 2015 (GMT -0400)
Clayton Lake | | Change Station
CLOSE
Current Station
Airport
Location: Clayton Lake,
Elevation: 1030 ft
Nearby Weather Stations

Elev 1030 ft 46.62 °N, 69.53 °W | Updated 35 minutes ago

Clear
Clear
66 °F
Feels Like 66 °F
N
4
Wind Variable Wind from Variable
Gusts 14 mph

Today
High -- | Low -- °F
--% Chance of Precip.
Yesterday
High -- | Low -- °F
Precip. -- in
4:57 AM 8:15 PM
Waxing Gibbous, 63% visible
Pressure 29.96 in
Visibility -9999.0 miles
Clouds
Dew Point 60 °F
Humidity 81%
Rainfall 0.51 in
Snow Depth Not available.
UV Not available.
Pollen 5.10 out of 12
Air Quality Not available.
Flu Activity Local Activity
METAR K40B 270219Z AUTO VRB03G12KT 19/16 A2998 RMK AO1 SLP144 T01910157 52009

More Conditions Fewer Conditions

Pressure 29.96 in
Visibility -9999.0 miles
Clouds
Dew Point 60 °F
Humidity 81%
Rainfall 0.51 in
Snow Depth Not available.
UV Not available.
Pollen 5.10 out of 12
Air Quality Not available.
Flu Activity Local Activity
METAR K40B 270219Z AUTO VRB03G12KT 19/16 A2998 RMK AO1 SLP144 T01910157 52009

More Conditions Fewer Conditions

10-Day Weather Forecast

Almanac

Astronomy

May. 26, 2015 Rise Set
Actual Time
Civil Twilight
Nautical Twilight
Astronomical Twilight
Moon
Length of Visible Light
Length of Day
Tomorrow will be .
, % of the Moon is Illuminated

Today's Extremes

State Highs State Lows

Community

WunderPhotos

Upload Photos

1,824,571 photos uploaded!

WunderBlogs® & News

Nearby

Air Quality

  Air Quality AQ Index Pollutant
Not available.

Snow Depth

Station Depth Elevation

Earthquake Activity

City Distance Mag. Time & Date
Minimum magnitude displayed is 2.5.

Coastal Water Temperatures

Place Temperature

Stations

Nearby Weather Stations

Station Location Temp. Windchill Dew Point Humidity Wind Precip. Elev Updated Type